Tiempo atmosférico en la estación meteorológica de Eivissa Aeropuerto, Illes Balears (6 m.)



Fecha
DESCASC
Temp. máxima en grados centígrados (hora)
DESCASC
Temp. mínima en grados centígrados (hora)
DESCASC
Temp. media en grados centígrados
DESCASC
Racha de viento máxima en m/sg (hora)
DESCASC
Velocidad máxima media en intervalos de 10 minutos(hora)
DESCASC
Precipitaciones diarias en mm
DESCASC
Precipitaciones de 00:00 a 06:00 en mm
DESCASC
Precipitaciones de 06:00 a 12:00 en mm
DESCASC
Precipitaciones de 12:00 a 18:00 en mm
DESCASC
Precipitaciones de 18:00 a 24:00 en mm
DESCASC

Gráficas

Temp. máximas Temp. mínimas Temp. medias Precipitaciones Rachas de viento máximas Velocidades máximas media en intervalos de 10 minutos

Datos horarios

Fecha y hora oficial Temperatura (ºC) Velocidad del viento (km/h) Dirección del viento Racha (km/h) Dirección de racha Precipitación (mm) Presión (hPa) Tendencia (hPa) Humedad (%)
2019-10-16 23:00:00 20.1 13 Sur 22 Sudoeste 0 1016.2 0.6 64
2019-10-16 22:00:00 20.2 12 Sur 24 Sur 0 1015.8 0.4 63
2019-10-16 21:00:00 20.4 15 Sur 22 Sur 0 1015.5 -0.3 63
2019-10-16 20:00:00 20.7 15 Sudoeste 26 Sudoeste 0 1015.6 -0.5 60
2019-10-16 19:00:00 21.2 16 Sudoeste 24 Sudoeste 0 1015.4 -1.1 60
2019-10-16 18:00:00 22.2 16 Sudoeste 28 Sudoeste 0 1015.8 -1.3 49
2019-10-16 17:00:00 23 17 Sudoeste 28 Sudoeste 0 1016.1 -1.5 39
2019-10-16 16:00:00 23.2 17 Sudoeste 28 Oeste 0 1016.5 -1.6 36
2019-10-16 15:00:00 23.2 19 Sudoeste 28 Oeste 0 1017.1 -1.3 34
2019-10-16 14:00:00 23.1 20 Sudoeste 32 Oeste 0 1017.6 -1 34
2019-10-16 13:00:00 23.2 21 Sudoeste 30 Oeste 0 1018.1 -0.2 38
2019-10-16 12:00:00 22.9 20 Sudoeste 32 Sudoeste 0 1018.4 0.4 39
2019-10-16 11:00:00 22.3 23 Sudoeste 32 Sudoeste 0 1018.6 1 43
2019-10-16 10:00:00 21.4 17 Sudoeste 28 Sudoeste 0 1018.3 0.6 51
2019-10-16 09:00:00 19.8 15 Sudoeste 24 Sudoeste 0 1018 0.3 59
2019-10-16 08:00:00 14.5 5 Norte 11 Noroeste 0 1017.6 -0.4 76
2019-10-16 07:00:00 13.6 5 Norte 13 Norte 0 1017.7 -0.5 79
2019-10-16 06:00:00 12.6 7 Norte 11 Norte 0 1017.7 -0.8 82
2019-10-16 05:00:00 12 5 Nordeste 9 Norte 0 1018 -0.7 79
2019-10-16 04:00:00 11.9 5 Norte 8 Norte 0 1018.2 -0.6 79
2019-10-16 03:00:00 11.6 4 Norte 9 Noroeste 0 1018.5 -0.3 79
2019-10-16 02:00:00 11.8 4 Norte 9 Noroeste 0 1018.7 -0.2 74
2019-10-16 01:00:00 11.4 2 Noroeste 8 Norte 0 1018.8 0.2 64
2019-10-16 00:00:00 12.3 4 Norte 13 Noroeste 0 1018.8 0.8 55
2019-10-15 23:00:00 12.4 0 Calma 17 Noroeste 0 1018.9 1 54
2019-10-15 22:00:00 13.7 10 Norte 15 Norte 0 1018.6 1.1 55
2019-10-15 21:00:00 15.5 6 Noroeste 13 Noroeste 0 1018 1.1 54
2019-10-15 20:00:00 17 9 Noroeste 15 Oeste 0 1017.9 1.2 51
2019-10-15 19:00:00 19.1 10 Oeste 22 Oeste 0 1017.5 0.9 41
2019-10-15 18:00:00 20.6 15 Oeste 24 Oeste 0 1016.9 0.3 38
2019-10-15 17:00:00 20.9 13 Oeste 32 Noroeste 0 1016.7 -0.3 40
2019-10-15 16:00:00 21.3 15 Noroeste 30 Oeste 0 1016.6 -0.6 37
2019-10-15 15:00:00 21.4 17 Noroeste 30 Oeste 0 1016.6 -0.4 40
2019-10-15 14:00:00 21 17 Noroeste 33 Oeste 0 1017 0.4 41
2019-10-15 13:00:00 20.9 21 Oeste 39 Oeste 0 1017.2 1.2 44
2019-10-15 12:00:00 20.1 27 Oeste 42 Oeste 0 1017 1.9 47
2019-10-15 11:00:00 19.6 32 Oeste 45 Oeste 0 1016.6 2.3 47
2019-10-15 10:00:00 19.1 23 Oeste 41 Noroeste 0 1016 2.3 49
2019-10-15 09:00:00 18.2 22 Oeste 42 Oeste 0 1015.1 2 49
2019-10-15 08:00:00 18 23 Oeste 54 Oeste 0 1014.3 1.9 48
2019-10-15 07:00:00 18.6 26 Oeste 52 Noroeste 0 1013.7 1.8 46
2019-10-15 06:00:00 19.1 35 Oeste 52 Oeste 0 1013.1 1.5 46
2019-10-15 05:00:00 19.5 33 Oeste 54 Oeste 0 1012.4 1.3 50
2019-10-15 04:00:00 20.5 26 Oeste 52 Oeste 0 1011.9 1.2 47
2019-10-15 03:00:00 21.2 34 Oeste 52 Oeste 0 1011.6 0.8 51
2019-10-15 02:00:00 22.6 35 Oeste 54 Oeste 0 1011.1 -0.1 50
2019-10-15 01:00:00 22.2 21 Oeste 30 Oeste 0 1010.7 0 80
2019-10-15 00:00:00 22.6 23 Sudoeste 39 Sudoeste 0 1010.8 0.3 77
2019-10-14 23:00:00 22.7 15 Sudoeste 22 Sudoeste 0 1011.2 0.9 81
2019-10-14 22:00:00 20.9 3 Sudeste 8 Sur 0 1010.7 1.1 91
2019-10-14 21:00:00 20.7 2 Norte 9 Norte 0 1010.5 1.5 88
2019-10-14 20:00:00 21.1 5 Sur 11 Noroeste 0 1010.3 0.2 89
2019-10-14 19:00:00 22.7 7 Noroeste 21 Norte 0 1009.6 -0.2 78
2019-10-14 18:00:00 23 13 Nordeste 33 Nordeste 3.2 1009 -1.1 78
2019-10-14 17:00:00 24.4 21 Norte 35 Norte 0 1010.1 -0.8 69
2019-10-14 16:00:00 25.5 20 Noroeste 39 Noroeste 0 1009.8 -1.2 68
2019-10-14 15:00:00 26.9 13 Sudoeste 21 Sudoeste 0 1010.1 -1.5 61
2019-10-14 14:00:00 26.5 7 Este 26 Este 0 1010.9 -0.7 71
2019-10-14 13:00:00 25.6 15 Este 28 Este 0 1011 -0.8 78
2019-10-14 12:00:00 24.9 14 Este 28 Este 0 1011.6 -0.1 81
2019-10-14 11:00:00 23.9 18 Nordeste 26 Nordeste 0 1011.6 0 86
2019-10-14 10:00:00 22.4 14 Nordeste 21 Nordeste 0 1011.8 -0.2 92
2019-10-14 09:00:00 20.2 12 Nordeste 18 Nordeste 0 1011.7 -1 95
2019-10-14 08:00:00 18.5 9 Norte 15 Norte 0 1011.6 -1.2 95
2019-10-14 07:00:00 17.6 3 Norte 9 Norte 0 1012 -0.5 95
2019-10-14 06:00:00 18.1 5 Noroeste 8 Norte 0 1012.7 -0.7 95
2019-10-14 05:00:00 19.1 5 Oeste 21 Nordeste 0 1012.8 -1.3 95
2019-10-14 04:00:00 17.4 12 Nordeste 17 Nordeste 0 1012.5 -1.9 95
2019-10-14 03:00:00 17.6 5 Nordeste -- -- 0 1013.4 -1.1 95
2019-10-14 02:00:00 18.9 2 Oeste 11 Noroeste 0 1014.1 -0.4 93
2019-10-14 01:00:00 18.7 6 Noroeste 13 Noroeste 0 1014.4 0 92
2019-10-14 00:00:00 19.1 7 Norte 9 Norte 0 1014.5 0.5 91
2019-10-13 23:00:00 20.3 8 Noroeste 22 Noroeste 0 1014.5 0.5 88
2019-10-13 22:00:00 21.5 8 Norte 24 Norte 0 1014.4 0.7 88
2019-10-13 21:00:00 21.4 11 Nordeste 18 Nordeste 0 1014 0.6 89
2019-10-13 20:00:00 22.3 13 Nordeste 21 Nordeste 0 1014 0.5 86
2019-10-13 19:00:00 23.7 12 Este 26 Norte 0 1013.7 0.3 83
2019-10-13 18:00:00 24.7 18 Este 32 Este 0 1013.4 -0.3 79
2019-10-13 17:00:00 25.1 21 Este 35 Este 0 1013.5 -0.9 78
2019-10-13 16:00:00 25.4 25 Este 35 Este 0 1013.4 -1.2 78
2019-10-13 15:00:00 25.6 23 Este 33 Este 0 1013.7 -1.1 75
2019-10-13 14:00:00 25.4 23 Este 33 Este 0 1014.4 -0.4 77
2019-10-13 13:00:00 25.3 23 Este 35 Este 0 1014.6 -0.2 78
2019-10-13 12:00:00 25.2 20 Este 30 Este 0 1014.8 0.7 77
2019-10-13 11:00:00 24.6 17 Este 26 Este 0 1014.8 1 79
2019-10-13 10:00:00 23.2 14 Nordeste 26 Nordeste 0 1014.8 1.2 86
2019-10-13 09:00:00 22.7 18 Nordeste 30 Nordeste 0 1014.1 0.6 88
2019-10-13 08:00:00 22.2 18 Nordeste 30 Este 0 1013.8 -0.1 89
2019-10-13 07:00:00 21.2 14 Nordeste 22 Nordeste 0 1013.6 -1.1 94
2019-10-13 06:00:00 21.1 13 Nordeste 17 Nordeste 0 1013.5 -1.7 95
2019-10-13 05:00:00 21.7 11 Nordeste 15 Nordeste 0 1013.9 -1.5 93
2019-10-13 04:00:00 21.9 8 Nordeste 11 Nordeste 0 1014.7 -0.6 93
2019-10-13 03:00:00 22.5 8 Nordeste -- -- -- 1015.2 -0.4 91
2019-10-13 02:00:00 23 7 Este 17 Este 0 1015.4 -0.1 91
2019-10-13 01:00:00 23.1 11 Este 22 Este 0 1015.3 0 92
2019-10-13 00:00:00 23.1 15 Este 22 Este 0 1015.6 0.5 91
2019-10-12 23:00:00 23.2 15 Nordeste 24 Norte 0 1015.5 0.4 92
2019-10-12 22:00:00 23.2 13 Este 26 Este 0 1015.3 0.3 92
2019-10-12 21:00:00 23.2 14 Nordeste 22 Norte 0 1015.1 0.1 92
2019-10-12 20:00:00 23.2 13 Este 21 Este 0 1015.1 -0.3 92
2019-10-12 19:00:00 23.5 14 Este 24 Este 0 1015 -0.6 90
2019-10-12 18:00:00 24.1 15 Este 26 Este 0 1015 -0.9 86
2019-10-12 17:00:00 24.7 17 Este 30 Sudeste 0 1015.4 -1.2 83
2019-10-12 16:00:00 24.6 17 Este 30 Este 0 1015.6 -1.5 82
2019-10-12 15:00:00 25.2 20 Sudeste 32 Sudeste 0 1015.9 -1.6 78
2019-10-12 14:00:00 25.3 19 Este 30 Este 0 1016.6 -0.6 78
2019-10-12 13:00:00 25 21 Este 30 Sudeste 0 1017.1 0.2 77
2019-10-12 12:00:00 24.2 19 Este 35 Norte 0 1017.5 1 78
2019-10-12 11:00:00 23.7 23 Este 33 Este 0 1017.2 1.4 79
2019-10-12 10:00:00 23.4 24 Este 33 Este 0 1016.9 0.8 80
2019-10-12 09:00:00 22.6 21 Este 37 Este 0 1016.5 0.3 82
2019-10-12 08:00:00 22.4 26 Este 39 Este 0 1015.8 -0.5 81
2019-10-12 07:00:00 22.4 23 Este 33 Este 0 1016.1 -0.6 79
2019-10-12 06:00:00 22.2 20 Nordeste 30 Norte 0 1016.2 -1.2 81
2019-10-12 05:00:00 22.3 17 Este 28 Este 0 1016.3 -1.3 81
2019-10-12 04:00:00 22.2 15 Este 24 Este 0 1016.7 -1.1 81
2019-10-12 03:00:00 22.4 13 Este -- -- -- 1017.4 -0.5 81
2019-10-12 02:00:00 22.4 13 Este 22 Norte 0 1017.6 -0.5 81
2019-10-12 01:00:00 22.5 16 Este 26 Este 0 1017.8 0.1 80
2019-10-12 00:00:00 22.4 15 Este 28 Norte 0 1017.9 0.4 81
2019-10-11 23:00:00 22.3 16 Este 30 Norte 0 1018.1 0.6 81
2019-10-11 22:00:00 22.4 21 Este 30 Este 0 1017.7 0 79
2019-10-11 21:00:00 22.4 18 Este 28 Este 0 1017.5 -0.3 80
2019-10-11 20:00:00 22.4 21 Nordeste 30 Norte 0 1017.5 -0.5 79
2019-10-11 19:00:00 22.7 18 Este 28 Este 0 1017.7 -0.8 78
2019-10-11 18:00:00 23.7 18 Este 28 Este 0 1017.8 -1.1 73
2019-10-11 17:00:00 24 17 Este 28 Este 0 1018 -1.8 70
2019-10-11 16:00:00 24.2 17 Este 30 Norte 0 1018.5 -2.1 69
2019-10-11 15:00:00 24.8 17 Este 26 Este 0 1018.9 -1.8 66
2019-10-11 14:00:00 25.1 17 Este 26 Este 0 1019.8 -1 65
2019-10-11 13:00:00 24.5 15 Este 24 Este 0 1020.6 0.2 67
2019-10-11 12:00:00 23.9 14 Este 24 Sudeste 0 1020.7 0.9 69
2019-10-11 11:00:00 23.8 15 Este 24 Este 0 1020.8 1.4 70
2019-10-11 10:00:00 22.9 13 Este 21 Este 0 1020.4 0.9 73
2019-10-11 09:00:00 21.9 10 Este 18 Norte 0 1019.8 0.3 77
2019-10-11 08:00:00 21.2 9 Este 13 Este 0 1019.4 0.1 80
2019-10-11 07:00:00 20.7 9 Sudeste 15 Este 0 1019.5 0 79
2019-10-11 06:00:00 21 8 Sudeste 15 Este 0 1019.5 -0.4 80
2019-10-11 05:00:00 21.2 10 Este 18 Sudeste 0 1019.3 -0.7 78
2019-10-11 04:00:00 21.8 12 Sudeste 21 Sudeste 0 1019.5 -0.5 75
2019-10-11 03:00:00 22.1 12 Sudeste -- -- -- 1019.9 -0.4 75
2019-10-11 02:00:00 21.6 12 Sudeste 17 Este 0 1020 -0.4 76
2019-10-11 01:00:00 21.7 13 Sudeste 22 Este 0 1020 -0.1 75
2019-10-11 00:00:00 20.7 5 Sudeste 9 Este 0 1020.3 0.7 78
2019-10-10 23:00:00 20.3 3 Nordeste 13 Sudeste 0 1020.4 1.3 75
2019-10-10 22:00:00 21.4 8 Sudeste 13 Sudeste 0 1020.1 1 73
2019-10-10 21:00:00 21.4 7 Sudeste 15 Este 0 1019.6 0.8 70
2019-10-10 20:00:00 22 9 Este 17 Este 0 1019.1 0.3 69
2019-10-10 19:00:00 22.9 11 Este 18 Norte 0 1019.1 0.2 65
2019-10-10 18:00:00 23.7 13 Este 18 Este 0 1018.8 -0.3 63
2019-10-10 17:00:00 24.2 13 Este 22 Este 0 1018.8 -0.7 61
2019-10-10 16:00:00 24.5 16 Este 26 Este 0 1018.9 -0.9 58
2019-10-10 15:00:00 24.9 15 Este 24 Este 0 1019.1 -0.9 59
2019-10-10 14:00:00 24.8 13 Este 22 Este 0 1019.5 -0.5 60
2019-10-10 13:00:00 24.7 10 Este 21 Sudeste 0 1019.8 0.3 60
2019-10-10 12:00:00 24.7 14 Este 24 Sudeste 0 1020 1.2 59
2019-10-10 11:00:00 23.3 12 Este 22 Este 0 1020 1.9 66
2019-10-10 10:00:00 22.5 6 Nordeste 11 Nordeste 0 1019.5 1.7 76
2019-10-10 09:00:00 18.8 3 Norte 11 Nordeste 0 1018.8 1.2 92
2019-10-10 08:00:00 16.8 3 Noroeste 8 Norte 0 1018.1 0.6 93
2019-10-10 07:00:00 16.8 0 Calma 9 Noroeste 0 1017.8 0.2 91
2019-10-10 06:00:00 17.6 0 Calma 8 Norte 0 1017.6 -0.2 91
2019-10-10 05:00:00 17.7 5 Norte 9 Norte 0 1017.5 -0.4 90
2019-10-10 04:00:00 18.2 4 Norte 9 Norte 0 1017.6 -0.1 89
2019-10-10 03:00:00 18.2 4 Norte -- -- -- 1017.8 0.4 88
2019-10-10 02:00:00 18.8 5 Norte 13 Norte 0 1017.9 0.9 86
2019-10-10 01:00:00 19.2 9 Norte 13 Norte 0 1017.7 1.2 84
2019-10-10 00:00:00 19.5 9 Norte 15 Norte 0 1017.4 1.3 82
2019-10-09 23:00:00 21.5 10 Este 18 Este 0 1017 1.3 74
2019-10-09 22:00:00 21.6 10 Este 17 Este 0 1016.5 1.4 73
2019-10-09 21:00:00 21.7 11 Este 15 Este 0 1016.1 1.4 73
2019-10-09 20:00:00 21.7 8 Este 15 Este 0 1015.7 1 71
2019-10-09 19:00:00 22.7 10 Este 17 Sudeste 0 1015.1 0.5 66
2019-10-09 18:00:00 23.8 12 Este 18 Norte 0 1014.7 -0.2 63
2019-10-09 17:00:00 24.2 13 Este 21 Este 0 1014.7 -0.6 62
2019-10-09 16:00:00 25.3 11 Sudeste 21 Sudeste 0 1014.6 -1.5 59
2019-10-09 15:00:00 24.6 8 Sudeste 21 Sur 0 1014.9 -1.2 60
2019-10-09 14:00:00 25.4 10 Sur 18 Sudeste 0 1015.3 -0.7 56
2019-10-09 13:00:00 23.8 9 Sudoeste 21 Sur 0 1016.1 0.1 61
2019-10-09 12:00:00 24 9 Sur 22 Sur 0 1016.1 0.6 60
2019-10-09 11:00:00 24.1 11 Sur 21 Sur 0 1016 1.1 60
2019-10-09 10:00:00 23.2 10 Sur 15 Sur 0 1016 0.7 64
2019-10-09 09:00:00 20 3 Oeste 9 Sudeste 0 1015.5 0.2 79
2019-10-09 08:00:00 18 3 Sur 9 Sudeste 0 1014.9 -0.4 84
2019-10-09 07:00:00 16.6 3 Norte 5 Norte 0 1015.3 0 88
2019-10-09 06:00:00 16.9 3 Sudeste 9 Sur 0 1015.3 -0.6 85
2019-10-09 05:00:00 20 7 Sudeste 18 Sur 0 1015.3 -0.8 74
2019-10-09 04:00:00 20.6 12 Sur 18 Sur 0 1015.3 -1 71
2019-10-09 03:00:00 20.7 12 Sur -- -- -- 1015.9 -0.5 69
2019-10-09 02:00:00 20.8 13 Sur 22 Sur 0 1016.1 -0.5 67
2019-10-09 01:00:00 20.7 10 Sur 17 Sur 0 1016.3 -0.4 68
2019-10-09 00:00:00 20.7 10 Sudeste 21 Sur 0 1016.4 0 64
2019-10-08 23:00:00 21.1 13 Sur 21 Sur 0 1016.6 0.3 59
2019-10-08 22:00:00 20.4 9 Sudeste 18 Sudeste 0 1016.7 0.4 64
2019-10-08 21:00:00 21.3 10 Sur 18 Sur 0 1016.4 -0.1 60
2019-10-08 20:00:00 21.8 12 Sur 18 Sudoeste 0 1016.3 -0.4 56
2019-10-08 19:00:00 23.1 13 Sur 21 Sudoeste 0 1016.3 -0.9 52
2019-10-08 18:00:00 23.9 14 Sudoeste 24 Sudoeste 0 1016.5 -1.2 53
2019-10-08 17:00:00 24.4 15 Sudoeste 26 Sudoeste 0 1016.7 -1.6 52
2019-10-08 16:00:00 24.7 16 Sudoeste 26 Sudoeste 0 1017.2 -1.9 52
2019-10-08 15:00:00 24.6 18 Sudoeste 24 Sudoeste 0 1017.7 -1.6 53
2019-10-08 14:00:00 24.8 17 Sudoeste 26 Sudoeste 0 1018.3 -0.8 52
2019-10-08 13:00:00 25 17 Sudoeste 26 Sudoeste 0 1019.1 0.4 51
2019-10-08 12:00:00 24.4 15 Sudoeste 22 Sudoeste 0 1019.3 0.8 53
2019-10-08 11:00:00 24.2 13 Sur 21 Sur 0 1019.1 1.1 52
2019-10-08 10:00:00 22.7 9 Sudeste 15 Sur 0 1018.7 1.1 62
2019-10-08 09:00:00 18.6 6 Norte 13 Noroeste 0 1018.5 1.1 84
2019-10-08 08:00:00 16.6 7 Norte 11 Norte 0 1018 0.7 90
2019-10-08 07:00:00 17 6 Norte 15 Norte 0 1017.6 0.2 88
2019-10-08 06:00:00 16 5 Norte 9 Norte 0 1017.4 -0.1 87
2019-10-08 05:00:00 16.1 4 Norte 8 Norte 0 1017.3 -0.1 88
2019-10-08 04:00:00 16.1 5 Norte 8 Norte 0 1017.4 0.2 87
2019-10-08 03:00:00 16.6 5 Nordeste -- -- -- 1017.5 0.5 88
2019-10-08 02:00:00 16.4 5 Norte 9 Norte 0 1017.4 0.6 88
2019-10-08 01:00:00 16.8 8 Norte 13 Noroeste 0 1017.2 0.6 86
2019-10-08 00:00:00 17.3 3 Norte 17 Noroeste 0 1017 1.1 82
2019-10-07 23:00:00 17.7 5 Noroeste 13 Noroeste 0 1016.8 1.6 81
2019-10-07 22:00:00 19 4 Norte 15 Noroeste 0 1016.6 1.9 75
2019-10-07 21:00:00 19.4 6 Norte 15 Noroeste 0 1015.9 1.3 74
2019-10-07 20:00:00 20.7 3 Sudeste 11 Este 0 1015.2 0.6 68
2019-10-07 19:00:00 22.1 8 Sudeste 15 Este 0 1014.7 0.5 63
2019-10-07 18:00:00 23.1 10 Sudeste 21 Sudeste 0 1014.6 0.6 60
2019-10-07 17:00:00 22.8 13 Este 26 Este 0 1014.6 0.8 61
2019-10-07 16:00:00 22.7 19 Este 32 Este 0 1014.2 0.1 62
2019-10-07 15:00:00 23.4 23 Este 37 Este 0 1014 -0.5 60
2019-10-07 14:00:00 25.3 17 Nordeste 24 Nordeste 0 1013.8 -0.5 46
2019-10-07 13:00:00 24.4 20 Norte 39 Nordeste 0 1014.1 0.4 46
2019-10-07 12:00:00 23.9 24 Norte 45 Nordeste 0 1014.5 1.6 42
2019-10-07 11:00:00 23.2 30 Norte 48 Norte 0 1014.3 1.9 42
2019-10-07 10:00:00 22.9 18 Norte 39 Norte 0 1013.7 1.3 35
2019-10-07 09:00:00 22.2 10 Norte 26 Norte 0 1012.9 0.7 45
2019-10-07 08:00:00 20.6 20 Norte 30 Norte 0 1012.4 -0.5 58
2019-10-07 07:00:00 20.1 6 Norte 13 Norte 0 1012.4 -0.9 85
2019-10-07 06:00:00 19.5 2 Noroeste 8 Nordeste 0 1012.2 -1.7 94
2019-10-07 05:00:00 19.3 4 Sudoeste 11 Norte 0 1012.9 -1.8 95
2019-10-07 04:00:00 19.2 5 Norte 9 Norte 0 1013.3 -1.3 94
2019-10-07 03:00:00 19.6 5 Sudoeste -- -- -- 1013.9 -0.9 91
2019-10-07 02:00:00 18.9 6 Norte 9 Norte 0 1014.7 -0.3 93
2019-10-07 01:00:00 19.1 5 Noroeste 11 Noroeste 0 1014.6 -0.4 92
2019-10-07 00:00:00 19.7 5 Noroeste 11 Oeste 0 1014.8 0.3 91
2019-10-06 23:00:00 19.8 2 Norte 13 Noroeste 0 1015 0.6 88
2019-10-06 22:00:00 20.7 6 Norte 13 Norte 0 1015 0.8 87
2019-10-06 21:00:00 21.6 7 Norte 13 Norte 0 1014.5 0.1 85
2019-10-06 20:00:00 22.7 4 Sudeste 8 Sudeste 0 1014.4 -0.1 82
2019-10-06 19:00:00 24.3 4 Sudoeste 13 Sur 0 1014.2 -1.1 72
2019-10-06 18:00:00 24.2 6 Sudeste 18 Sudeste 0 1014.4 -1.1 74
2019-10-06 17:00:00 24.5 12 Sudeste 18 Sudeste 0 1014.5 -1.3 73
2019-10-06 16:00:00 25.1 6 Sudoeste 18 Sudoeste 0 1015.3 -1.1 69
2019-10-06 15:00:00 25 8 Este 21 Sudeste 0 1015.5 -0.8 72
2019-10-06 14:00:00 26.3 8 Sur 17 Sudoeste 0 1015.8 0 65
2019-10-06 13:00:00 24.9 11 Sudoeste 21 Sur 0 1016.4 0.9 68
2019-10-06 12:00:00 25.3 6 Sudeste 13 Norte 0 1016.3 1.1 66
2019-10-06 11:00:00 24.6 4 Nordeste 9 Sudeste 0 1015.8 0.8 71
2019-10-06 10:00:00 23.4 4 Nordeste 8 Nordeste 0 1015.5 1 80
2019-10-06 09:00:00 20.2 5 Este 9 Norte 0 1015.2 0.8 95
2019-10-06 08:00:00 19.1 3 Noroeste 11 Noroeste 0 1015 0.7 95
2019-10-06 07:00:00 18.8 4 Norte 8 Norte 0 1014.5 0.2 95
2019-10-06 06:00:00 17.4 0 Calma 9 Norte 0 1014.4 0 95
2019-10-06 05:00:00 17.6 0 Calma 8 Noroeste 0 1014.3 -0.1 95
2019-10-06 04:00:00 18.1 0 Calma 8 Noroeste 0 1014.3 -0.4 95
2019-10-06 03:00:00 18.6 2 Noroeste 5 Noroeste 0 1014.4 -0.1 94
2019-10-06 02:00:00 18.8 3 Sudeste 8 Norte 0 1014.4 -0.2 92
2019-10-06 01:00:00 19.3 5 Norte 21 Norte 0 1014.7 0.7 92
2019-10-06 00:00:00 19.7 7 Noroeste 18 Norte 0 1014.5 1 91
2019-10-05 23:00:00 19.7 5 Norte 17 Noroeste 0 1014.6 1.5 91
2019-10-05 22:00:00 20.5 4 Norte 21 Noroeste 0 1014 1.1 88
2019-10-05 21:00:00 21.7 9 Norte 17 Norte 0 1013.5 0.6 86
2019-10-05 20:00:00 22.1 8 Nordeste 15 Este 0 1013.1 0.5 85
2019-10-05 19:00:00 24 10 Este 18 Este 0 1012.9 0.2 78
2019-10-05 18:00:00 24.9 13 Este 22 Este 0 1012.9 0.2 73
2019-10-05 17:00:00 25.4 16 Este 24 Este 0 1012.6 -0.6 71
2019-10-05 16:00:00 25.6 17 Este 24 Sudeste 0 1012.7 -0.7 73
2019-10-05 15:00:00 25.2 16 Este 24 Este 0 1012.7 -0.4 73
2019-10-05 14:00:00 25.6 14 Este 21 Este 0 1013.2 0.1 70
2019-10-05 13:00:00 26.7 6 Sudeste 15 Este 0 1013.4 0.9 65
2019-10-05 12:00:00 26 7 Sur 11 Sur 0 1013.1 1 67
2019-10-05 11:00:00 24.7 6 Este 11 Este 0 1013.1 1.4 76
2019-10-05 10:00:00 23.6 6 Este 13 Nordeste 0 1012.5 0.9 80
2019-10-05 09:00:00 20.8 8 Nordeste 13 Nordeste 0 1012.1 0.2 91
2019-10-05 08:00:00 19.7 9 Norte 13 Norte 0 1011.7 -0.1 92
2019-10-05 07:00:00 22.1 13 Sudoeste 21 Sudoeste 0 1011.6 -0.5 86
2019-10-05 06:00:00 22.6 14 Sudoeste 21 Sudoeste 0 1011.9 -0.4 82
2019-10-05 05:00:00 22.4 15 Sudoeste 22 Sudoeste 0 1011.8 -0.7 85
2019-10-05 04:00:00 22.4 13 Sudoeste 21 Sudoeste 0 1012.1 -0.7 85
2019-10-05 03:00:00 22.6 14 Sudoeste 26 Sudoeste 0 1012.3 -0.8 82
2019-10-05 02:00:00 22.6 14 Sudoeste 22 Sudoeste 0 1012.5 -0.8 82
2019-10-05 01:00:00 22.6 15 Sudoeste 26 Sudoeste 0 1012.8 -0.6 82
2019-10-05 00:00:00 22.7 14 Sudoeste 24 Sudoeste 0 1013.1 -0.2 77
2019-10-04 23:00:00 22.6 12 Sur 21 Sur 0 1013.3 0 77
2019-10-04 22:00:00 22.2 12 Sur 17 Sur 0 1013.4 0.2 80
2019-10-04 21:00:00 22.8 11 Sur 17 Sur 0 1013.3 0.3 80
2019-10-04 20:00:00 23.2 11 Sur 21 Sur 0 1013.3 -0.1 78
2019-10-04 19:00:00 24.1 12 Sudoeste 22 Sudoeste 0 1013.2 -0.8 73
2019-10-04 18:00:00 24.8 15 Sudoeste 24 Sudoeste 0 1013 -1.6 70
2019-10-04 17:00:00 25.3 16 Sudoeste 24 Sur 0 1013.4 -1.9 67
2019-10-04 16:00:00 25.4 17 Sudoeste 24 Sur 0 1014 -1.9 68
2019-10-04 15:00:00 25.4 15 Sudoeste 22 Sudoeste 0 1014.6 -1.5 68
2019-10-04 14:00:00 24.9 14 Sudoeste 18 Sudoeste 0 1015.3 -0.7 69
2019-10-04 13:00:00 25.7 10 Sur 22 Sur 0 1015.9 0.2 65
2019-10-04 12:00:00 24.4 10 Este 18 Sudeste 0 1016.1 1 72
2019-10-04 11:00:00 24 5 Este 11 Este 0 1016 1.3 72
2019-10-04 10:00:00 22 2 Nordeste 9 Norte 0 1015.7 1.1 79
2019-10-04 09:00:00 17.9 6 Norte 11 Norte 0 1015.1 0.5 93
2019-10-04 08:00:00 16 4 Norte 15 Norte 0 1014.7 -0.1 94
2019-10-04 07:00:00 15.4 7 Norte 9 Norte 0 1014.6 -0.2 94
2019-10-04 06:00:00 15.1 4 Noroeste 13 Norte 0 1014.6 -0.6 93
2019-10-04 05:00:00 15.9 5 Norte 9 Norte 0 1014.8 -0.1 92
2019-10-04 04:00:00 15.5 3 Norte 8 Norte 0 1014.8 -0.3 91
2019-10-04 03:00:00 16.1 6 Norte 9 Nordeste 0 1015.2 -0.1 90
2019-10-04 02:00:00 16.2 4 Norte 13 Norte 0 1014.9 -0.6 87
2019-10-04 01:00:00 15.7 4 Norte 11 Noroeste 0 1015.1 -0.2 88
2019-10-04 00:00:00 16.6 0 Calma 9 Noroeste 0 1015.3 0.6 86
2019-10-03 23:00:00 17.4 7 Noroeste 13 Norte 0 1015.5 1.3 81
2019-10-03 22:00:00 18.2 8 Noroeste 15 Norte 0 1015.3 1.4 79
2019-10-03 21:00:00 19.5 8 Norte 13 Norte 0 1014.7 1 75
2019-10-03 20:00:00 20.6 2 Sur 13 Sudoeste 0 1014.2 0.3 69
2019-10-03 19:00:00 23 10 Sudoeste 15 Sudoeste 0 1013.9 -0.3 60
2019-10-03 18:00:00 24.3 10 Sur 18 Sur 0 1013.7 -0.7 54
2019-10-03 17:00:00 24.5 10 Sudeste 32 Sudeste 0 1013.9 -0.8 56
2019-10-03 16:00:00 24.5 10 Sudeste 21 Este 0 1014.2 -1 58
2019-10-03 15:00:00 24.7 12 Este 21 Sudeste 0 1014.4 -1.2 56
2019-10-03 14:00:00 25 13 Sudeste 22 Este 0 1014.7 -0.5 56
2019-10-03 13:00:00 24.5 10 Este 15 Este 0 1015.2 0.2 57
2019-10-03 12:00:00 23.9 12 Sudoeste 17 Sudoeste 0 1015.6 1 57
2019-10-03 11:00:00 23.4 3 Este 8 Este 0 1015.2 0.9 60
2019-10-03 10:00:00 21.9 0 Calma 8 Oeste 0 1015 0.9 64
2019-10-03 09:00:00 18.7 0 Calma 15 Norte 0 1014.6 0.7 78
2019-10-03 08:00:00 18.3 6 Norte 11 Noroeste 0 1014.3 0.3 71
2019-10-03 07:00:00 16.6 0 Calma 13 Oeste 0 1014.1 -0.1 77
2019-10-03 06:00:00 17 0 Calma 5 Sudoeste 0 1013.9 -0.6 76
2019-10-03 05:00:00 16.5 3 Noroeste 13 Norte 0 1014 -0.5 79
2019-10-03 04:00:00 16.8 9 Norte 13 Norte 0 1014.2 -0.3 79
2019-10-03 03:00:00 17 2 Noroeste 13 Norte 0 1014.5 -0.1 76
2019-10-03 02:00:00 16.7 3 Norte 9 Norte 0 1014.5 0.2 77
2019-10-03 01:00:00 19.4 6 Noroeste 21 Oeste 0 1014.5 1.3 64
2019-10-03 00:00:00 18.3 5 Oeste 13 Sudoeste 0 1014.6 1.4 68
2019-10-02 23:00:00 18.8 6 Noroeste 15 Noroeste 0 1014.3 1.7 65
2019-10-02 22:00:00 19.9 4 Sudoeste 9 Oeste 0 1013.2 1.1 60
2019-10-02 21:00:00 19.9 5 Oeste 15 Noroeste 0 1013.2 1.3 59
2019-10-02 20:00:00 21.6 4 Nordeste 24 Noroeste 0 1012.6 0.8 50
2019-10-02 19:00:00 23.8 13 Norte 26 Noroeste 0 1012.1 0.5 40
2019-10-02 18:00:00 24.7 17 Noroeste 33 Noroeste 0 1011.9 0.2 35
2019-10-02 17:00:00 25.7 20 Noroeste 35 Norte 0 1011.8 0.2 31
2019-10-02 16:00:00 25.9 27 Norte 45 Norte 0 1011.6 -0.1 30
2019-10-02 15:00:00 25.6 20 Norte 41 Noroeste 0 1011.7 -0.2 40
2019-10-02 14:00:00 25.4 27 Norte 39 Norte 0 1011.6 -0.2 42
2019-10-02 13:00:00 25.8 22 Norte 39 Norte 0 1011.7 0.6 45
2019-10-02 12:00:00 25.4 25 Norte 42 Norte 0 1011.9 1.8 39
2019-10-02 11:00:00 24.6 28 Norte 45 Norte 0 1011.8 2.1 54
2019-10-02 10:00:00 24.2 32 Norte 52 Norte 0 1011.1 2.1 47
2019-10-02 09:00:00 23.4 31 Norte 48 Norte 0 1010.1 1.9 56
2019-10-02 08:00:00 22.6 12 Norte 22 Norte 0 1009.7 1.8 74
2019-10-02 07:00:00 23.2 16 Norte 35 Norte 0 1009 1.5 71
2019-10-02 06:00:00 23.5 17 Norte 39 Norte 0 1008.2 0.8 71
2019-10-02 05:00:00 24 28 Norte 48 Norte 0 1007.9 0.7 68
2019-10-02 04:00:00 24.5 26 Norte 39 Norte 0 1007.5 0.3 61
2019-10-02 03:00:00 20.8 6 Este 18 Norte 0 1007.4 -0.2 91
2019-10-02 02:00:00 22 10 Noroeste 17 Oeste 0 1007.2 -0.5 92
2019-10-02 01:00:00 22.3 8 Sudoeste 11 Sur 0 1007.2 -0.4 94
2019-10-02 00:00:00 22.9 9 Sudoeste 15 Sudoeste 0 1007.6 0.2 93
2019-10-01 23:00:00 23.2 12 Sudoeste 18 Oeste 0 1007.7 0.2 93
2019-10-01 22:00:00 23.2 14 Sudoeste 22 Sudoeste 0 1007.6 0.1 91
2019-10-01 21:00:00 23.5 17 Sudoeste 22 Sudoeste 0 1007.4 -0.4 87
2019-10-01 20:00:00 23.7 14 Sudoeste 22 Sudoeste 0 1007.5 -0.5 84
2019-10-01 19:00:00 24.1 14 Sudoeste 22 Sudoeste 0 1007.5 -0.8 81
2019-10-01 18:00:00 24.7 14 Sudoeste 28 Sudoeste 0 1007.8 -1.2 76
2019-10-01 17:00:00 25.2 18 Sudoeste 26 Sudoeste 0 1008 -1.7 75
2019-10-01 16:00:00 25.6 18 Sudoeste 28 Sudoeste 0 1008.3 -2.1 73
2019-10-01 15:00:00 25.4 18 Sudoeste 24 Sudoeste 0 1009 -1.8 73
2019-10-01 14:00:00 25.5 16 Sudoeste 26 Sudoeste 0 1009.7 -1.4 73
2019-10-01 13:00:00 25.3 18 Sudoeste 24 Sudoeste 0 1010.4 -0.4 73
2019-10-01 12:00:00 24.9 17 Sudoeste 24 Sudoeste 0 1010.8 0.3 75
2019-10-01 11:00:00 24.5 15 Sudoeste 24 Sudoeste 0 1011.1 0.5 75
2019-10-01 10:00:00 23.7 15 Sudoeste 22 Sudoeste 0 1010.8 0.2 79
2019-10-01 09:00:00 23.1 14 Sudoeste 18 Sudoeste 0 1010.5 -0.4 83
2019-10-01 08:00:00 22.4 11 Sudoeste 18 Sudoeste 0 1010.6 -0.5 84
2019-10-01 07:00:00 22.6 13 Sudoeste 18 Sudoeste 0 1010.6 -1.1 83
2019-10-01 06:00:00 22.5 11 Sudoeste 17 Sudoeste 0 1010.9 -1.8 85
2019-10-01 05:00:00 22.9 12 Sudoeste 22 Sudoeste 0 1011.1 -1.9 83
2019-10-01 04:00:00 22.9 11 Sudoeste 21 Sudoeste 0 1011.7 -1.7 83
2019-10-01 03:00:00 23.1 13 Sudoeste 21 Sudoeste 0 1012.7 -0.9 84
2019-10-01 02:00:00 22.6 12 Sudoeste 17 Sudoeste 0 1013 -0.7 85
2019-10-01 01:00:00 22.4 12 Sudoeste 17 Sudoeste 0 1013.4 -0.1 89
2019-10-01 00:00:00 20.6 3 Este 9 Oeste 0 1013.6 0.2 93
2019-09-30 23:00:00 21 6 Noroeste 9 Oeste 0 1013.7 0.5 91
2019-09-30 22:00:00 21.5 4 Noroeste 9 Norte 0 1013.5 0.4 90
2019-09-30 21:00:00 22.4 6 Sudoeste 9 Sudoeste 0 1013.4 0.1 87
2019-09-30 20:00:00 23.1 7 Sudoeste 11 Sudoeste 0 1013.2 -0.5 84
2019-09-30 19:00:00 24.4 6 Sudoeste 17 Sudoeste 0 1013.1 -0.9 79
2019-09-30 18:00:00 25.2 11 Sudoeste 21 Sur 0 1013.3 -1.1 75
2019-09-30 17:00:00 26 12 Sudoeste 21 Sudoeste 0 1013.7 -1.4 71
2019-09-30 16:00:00 25.9 14 Sudoeste 22 Sudoeste 0 1014 -1.7 72
2019-09-30 15:00:00 26.1 14 Sudoeste 21 Sudoeste 0 1014.4 -1.4 70
2019-09-30 14:00:00 26.2 15 Sudoeste 22 Sudoeste 0 1015.1 -0.3 71
2019-09-30 13:00:00 26 15 Sudoeste 21 Sudoeste 0 1015.7 0.7 72
2019-09-30 12:00:00 25.8 13 Sudoeste 21 Sur 0 1015.8 1.3 74
2019-09-30 11:00:00 25.6 13 Sudoeste 18 Sudoeste 0 1015.4 1.4 74
2019-09-30 10:00:00 24.5 12 Sudoeste 15 Sudoeste 0 1015 1.1 78
2019-09-30 09:00:00 23.6 9 Sudoeste 17 Sudoeste 0 1014.5 0.7 84
2019-09-30 08:00:00 23.2 12 Sudoeste 21 Sudoeste 0 1014 0.2 85
2019-09-30 07:00:00 23.4 11 Sudoeste 21 Sudoeste 0 1013.9 -0.2 86
2019-09-30 06:00:00 23 13 Sudoeste 21 Sudoeste 0 1013.8 -0.6 88
2019-09-30 05:00:00 22.8 14 Sudoeste 21 Sudoeste 0 1013.8 -0.8 90
2019-09-30 04:00:00 22.7 12 Sudoeste 18 Sudoeste 0 1014.1 -0.5 91
2019-09-30 03:00:00 22.7 10 Sudoeste 15 Sur 0 1014.4 -0.6 92
2019-09-30 02:00:00 22.7 10 Sur 17 Sudoeste 0 1014.6 -0.5 91
2019-09-30 01:00:00 22.9 14 Sudoeste 22 Sur 0 1014.6 -0.4 89
2019-09-30 00:00:00 23.1 14 Sudoeste 22 Sudoeste 0 1015 0.4 87
2019-09-29 23:00:00 23.1 14 Sudoeste 24 Sudoeste 0 1015.1 0.9 87
2019-09-29 22:00:00 23.2 12 Sudoeste 24 Sudoeste 0 1015 0.7 87
2019-09-29 21:00:00 23.2 13 Sudoeste 21 Sudoeste 0 1014.6 0 87
2019-09-29 20:00:00 23.3 11 Sudoeste 21 Sudoeste 0 1014.2 -0.9 85
2019-09-29 19:00:00 24.4 13 Sudoeste 21 Sudoeste 0 1014.3 -1.1 79
2019-09-29 18:00:00 24.8 15 Sudoeste 24 Sudoeste 0 1014.6 -1.2 76
2019-09-29 17:00:00 25.6 16 Sudoeste 24 Sudoeste 0 1015.1 -1.3 74
2019-09-29 16:00:00 25.5 18 Sudoeste 24 Sudoeste 0 1015.4 -1.3 73
2019-09-29 15:00:00 25.8 18 Sudoeste 26 Sudoeste 0 1015.8 -1.2 73
2019-09-29 14:00:00 25.7 17 Sudoeste 22 Sudoeste 0 1016.4 -0.5 74
2019-09-29 13:00:00 25.3 13 Sudoeste 22 Sudoeste 0 1016.7 0.1 75
2019-09-29 12:00:00 25.1 11 Sudoeste 15 Sudoeste 0 1017 0.9 75
2019-09-29 11:00:00 25 8 Sur 13 Sur 0 1016.9 0.9 75
2019-09-29 10:00:00 22.8 0 Calma 5 Este 0 1016.6 0.4 88
2019-09-29 09:00:00 20.6 4 Noroeste 13 Norte 0 1016.1 -0.2 95
2019-09-29 08:00:00 18.8 9 Norte 13 Norte 0 1016 -0.5 95
2019-09-29 07:00:00 18.5 -- -- -- -- 0 1016.2 -0.5 95
2019-09-29 06:00:00 18.9 5 Norte 8 Norte 0 1016.3 -1 95
2019-09-29 05:00:00 19.6 4 Noroeste 13 Noroeste 0 1016.5 -0.9 95
2019-09-29 04:00:00 19.8 10 Norte -- -- 0 1016.7 -0.7 95
2019-09-29 03:00:00 19.9 9 Noroeste 9 Noroeste 0 1017.3 -0.4 95
2019-09-29 02:00:00 20 0 Calma 9 Noroeste 0 1017.4 -0.2 94
2019-09-29 01:00:00 20.2 5 Norte 9 Norte 0 1017.4 -0.1 93
2019-09-29 00:00:00 21.2 0 Calma 8 Este 0 1017.7 0.2 91
2019-09-28 23:00:00 22.1 7 Este 11 Este 0 1017.6 0.3 90
2019-09-28 22:00:00 21.7 6 Este 9 Este 0 1017.5 0 88
2019-09-28 21:00:00 22.2 8 Este 9 Norte 0 1017.5 0.1 87
2019-09-28 20:00:00 23 6 Este 15 Norte 0 1017.3 -0.2 83
2019-09-28 19:00:00 24.2 10 Este 17 Este 0 1017.5 -0.5 79
2019-09-28 18:00:00 25 12 Este 18 Este 0 1017.4 -0.9 74
2019-09-28 17:00:00 25.4 13 Este 22 Sudeste 0 1017.5 -1.3 75
2019-09-28 16:00:00 25.2 13 Este 24 Este 0 1018 -1.1 76
2019-09-28 15:00:00 25.5 15 Este 22 Este 0 1018.3 -0.8 74
2019-09-28 14:00:00 24.9 15 Este 22 Este 0 1018.8 0 77
2019-09-28 13:00:00 25.8 15 Este 22 Sudeste 0 1019.1 0.9 75
2019-09-28 12:00:00 25.6 12 Este 21 Este 0 1019.1 1.6 77
2019-09-28 11:00:00 24.6 13 Este 18 Sudeste 0 1018.8 2 81
2019-09-28 10:00:00 23.8 9 Este 15 Norte 0 1018.2 1.4 86
2019-09-28 09:00:00 21.2 5 Norte 9 Norte 0 1017.5 1.1 95
2019-09-28 08:00:00 19.7 8 Norte 11 Norte 0 1016.8 0.5 95
2019-09-28 07:00:00 19.9 6 Norte 11 Norte 0 1016.8 0.5 95
2019-09-28 06:00:00 19.9 6 Norte 9 Norte 0 1016.4 -0.3 95
2019-09-28 05:00:00 19.8 4 Nordeste 8 Nordeste 0 1016.3 -0.7 95
2019-09-28 04:00:00 19.7 5 Norte 8 Norte 0 1016.3 -0.7 95
2019-09-28 03:00:00 19.8 4 Noroeste 8 Noroeste 0 1016.7 -0.3 95
2019-09-28 02:00:00 20.1 5 Noroeste 9 Norte 0 1017 0.3 94
2019-09-28 01:00:00 20.1 5 Norte 8 Norte 0 1017 0.8 93
2019-09-28 00:00:00 20.9 3 Norte 8 Norte 0 1017 1.3 92
2019-09-27 23:00:00 21.1 4 Este 9 Sur 0 1016.7 1.2 91
2019-09-27 22:00:00 23 9 Sur 13 Sur 0 1016.2 0.8 86
2019-09-27 21:00:00 23.4 10 Sur 17 Sur 0 1015.7 0.3 82
2019-09-27 20:00:00 24.1 12 Sur 17 Sur 0 1015.5 -0.1 77
2019-09-27 19:00:00 25.8 12 Sur 17 Sur 0 1015.4 -0.2 54
2019-09-27 18:00:00 26.7 11 Sur 22 Sudoeste 0 1015.4 -0.6 57
2019-09-27 17:00:00 27 15 Sudoeste 22 Sur 0 1015.6 -0.9 59
2019-09-27 16:00:00 27.3 14 Sur 22 Sur 0 1015.6 -1.1 63
2019-09-27 15:00:00 27.5 16 Sur 22 Sur 0 1016 -1.1 61
2019-09-27 14:00:00 27.3 14 Sur 18 Sur 0 1016.5 -0.7 63
2019-09-27 13:00:00 26.6 12 Sur 21 Sur 0 1016.7 -0.2 67
2019-09-27 12:00:00 25.6 11 Sur 17 Sudoeste 0 1017.1 0.3 73
2019-09-27 11:00:00 25.4 11 Sur 15 Sur 0 1017.2 0.8 73
2019-09-27 10:00:00 24.2 11 Sudoeste 17 Sudoeste 0 1016.9 0.9 78
2019-09-27 09:00:00 21.2 0 Calma 11 Norte 0 1016.8 0.7 92
2019-09-27 08:00:00 19.9 6 Norte 13 Noroeste 0 1016.4 0.3 94
2019-09-27 07:00:00 19.7 2 Norte 9 Norte 0 1016 -0.4 94
2019-09-27 06:00:00 19.7 4 Norte 8 Norte 0 1016.1 -0.7 94
2019-09-27 05:00:00 19.8 3 Norte 8 Norte 0 1016.1 -1 94
2019-09-27 04:00:00 19.5 5 Norte 8 Norte 0 1016.4 -1 94
2019-09-27 03:00:00 19.9 4 Noroeste 8 Norte 0 1016.8 -0.6 92
2019-09-27 02:00:00 20.1 3 Norte 8 Norte 0 1017.1 -0.2 92
2019-09-27 01:00:00 20.9 3 Norte 8 Norte 0 1017.4 0.2 89
2019-09-27 00:00:00 21.7 0 Calma 5 Sudeste 0 1017.4 0.7 87
2019-09-26 23:00:00 22.5 0 Calma 9 Sudeste 0 1017.3 1.1 86
2019-09-26 22:00:00 22.7 6 Sudeste 11 Sudeste 0 1017.2 1 85
2019-09-26 21:00:00 22.9 6 Sudeste 13 Sudeste 0 1016.7 0.4 85
2019-09-26 20:00:00 23.5 7 Sudeste 15 Sur 0 1016.2 -0.3 82
2019-09-26 19:00:00 25.4 10 Sur 18 Sur 0 1016.2 -0.7 72
2019-09-26 18:00:00 25.2 10 Sur 17 Sur 0 1016.3 -0.8 74
2019-09-26 17:00:00 25.7 12 Sudoeste 21 Sudeste 0 1016.5 -1 72
2019-09-26 16:00:00 26.4 11 Sur 21 Sur 0 1016.9 -1.2 69
2019-09-26 15:00:00 27.1 13 Sur 26 Sur 0 1017.1 -1.1 65
2019-09-26 14:00:00 25.9 14 Sudeste 22 Este 0 1017.5 -0.6 71
2019-09-26 13:00:00 24.8 15 Nordeste 22 Este 0 1018.1 0.5 76
2019-09-26 12:00:00 25.4 13 Este 18 Este 0 1018.2 1.1 73
2019-09-26 11:00:00 25.2 8 Este 15 Norte 0 1018.1 1.5 73
2019-09-26 10:00:00 24.3 0 Calma 4 Sur 0 1017.6 1.5 81
2019-09-26 09:00:00 21.3 0 Calma 13 Norte 0 1017.1 1.2 95
2019-09-26 08:00:00 19.9 4 Norte 15 Norte 0 1016.6 1 95
2019-09-26 07:00:00 20.2 9 Norte 11 Norte 0 1016.1 0.8 94
2019-09-26 06:00:00 20.9 6 Noroeste 8 Noroeste 0 1015.9 0.4 93
2019-09-26 05:00:00 21.1 6 Norte 11 Norte 0 1015.6 -0.1 94
2019-09-26 04:00:00 20.7 6 Norte 8 Norte 0 1015.3 -0.3 93
2019-09-26 03:00:00 20.8 6 Norte 9 Norte 0 1015.5 0.1 92
2019-09-26 02:00:00 21.1 8 Norte 22 Norte 0 1015.7 0.6 90
2019-09-26 01:00:00 21.2 6 Norte 24 Nordeste 0 1015.6 0.8 87
2019-09-26 00:00:00 20.7 9 Norte 22 Norte 0 1015.4 1.3 82
2019-09-25 23:00:00 21.1 8 Norte 28 Nordeste 0 1015.1 1.5 78
2019-09-25 22:00:00 21.6 9 Norte 18 Norte 0 1014.8 1.7 79
2019-09-25 21:00:00 22.3 6 Norte 22 Nordeste 0 1014.1 1.2 77
2019-09-25 20:00:00 23.1 10 Nordeste 21 Nordeste 0 1013.6 0.9 75
2019-09-25 19:00:00 25.1 15 Nordeste 24 Este 0 1013.1 0.5 67
2019-09-25 18:00:00 25.9 17 Nordeste 28 Norte 0 1012.9 0.3 64
2019-09-25 17:00:00 27.4 8 Sur 17 Sur 0 1012.7 0 63
2019-09-25 16:00:00 26.2 11 Este 21 Norte 0 1012.6 -0.5 70
2019-09-25 15:00:00 27.4 11 Este 28 Norte 0 1012.6 -0.5 62
2019-09-25 14:00:00 28.2 12 Norte 32 Norte 0 1012.7 -0.2 55
2019-09-25 13:00:00 27.7 20 Norte 33 Noroeste 0 1013.1 1 58
2019-09-25 12:00:00 27 22 Noroeste 39 Noroeste 0 1013.1 1.7 59
2019-09-25 11:00:00 26.6 21 Noroeste 41 Noroeste 0 1012.9 1.9 61
2019-09-25 10:00:00 25.8 27 Noroeste 39 Noroeste 0 1012.1 1.3 59
2019-09-25 09:00:00 24.6 15 Noroeste 30 Oeste 0 1011.4 0.8 65
2019-09-25 08:00:00 22.1 4 Sudoeste 11 Sudoeste 0 1011 0.3 67
2019-09-25 07:00:00 22.1 7 Sur 11 Sudoeste 0 1010.8 -0.3 75
2019-09-25 06:00:00 21.9 6 Sur 17 Sudoeste 0 1010.6 -0.8 88
2019-09-25 05:00:00 22.5 2 Sudoeste 11 Sudoeste 0 1010.7 -1.1 92
2019-09-25 04:00:00 22.6 8 Sudoeste 15 Sudoeste 0 1011.1 -1.2 91
2019-09-25 03:00:00 22.7 12 Sudoeste 15 Sudoeste 0 1011.4 -1.3 90
2019-09-25 02:00:00 21.4 7 Oeste 18 Sudoeste 0 1011.8 -1.1 89
2019-09-25 01:00:00 22.4 11 Sudoeste 21 Sudoeste 0 1012.3 -0.6 87
2019-09-25 00:00:00 22.8 16 Sudoeste 24 Sudoeste 0 1012.7 -0.1 86
2019-09-24 23:00:00 23.2 19 Sudoeste 30 Sudoeste 0 1012.9 0.2 82
2019-09-24 22:00:00 23.4 20 Sudoeste 30 Sudoeste 0 1012.9 0.2 80
2019-09-24 21:00:00 23.6 16 Sudoeste 28 Sudoeste 0 1012.8 -0.1 76
2019-09-24 20:00:00 23.7 18 Sudoeste 30 Sudoeste 0 1012.7 -0.6 76
2019-09-24 19:00:00 24.9 22 Sudoeste 35 Sudoeste 0 1012.7 -0.9 68
2019-09-24 18:00:00 25.7 24 Sudoeste 39 Sudoeste 0 1012.9 -1.3 67
2019-09-24 17:00:00 26.1 25 Sudoeste 35 Sudoeste 0 1013.3 -1.7 67
2019-09-24 16:00:00 26 27 Sudoeste 35 Sudoeste 0 1013.6 -2.1 67
2019-09-24 15:00:00 26 29 Sudoeste 39 Sudoeste 0 1014.2 -1.7 68
2019-09-24 14:00:00 26.2 27 Sudoeste 39 Sudoeste 0 1015 -1.2 69
2019-09-24 13:00:00 25.9 28 Sudoeste 37 Sudoeste 0 1015.7 0 69
2019-09-24 12:00:00 25.6 22 Sudoeste 30 Sudoeste 0 1015.9 0.7 69
2019-09-24 11:00:00 24.7 21 Sudoeste 30 Sudoeste 0 1016.2 0.7 78
2019-09-24 10:00:00 24.1 16 Sudoeste 26 Sudoeste 0 1015.7 0.3 81
2019-09-24 09:00:00 22.8 15 Sudoeste 22 Sudoeste 0 1015.2 0 84
2019-09-24 08:00:00 19.7 6 Oeste 11 Noroeste 0 1015.5 -0.2 93
2019-09-24 07:00:00 18.2 0 Calma -- -- 0 1015.4 -0.8 95
2019-09-24 06:00:00 18.9 5 Noroeste 8 Noroeste 0 1015.2 -1.5 95
2019-09-24 05:00:00 18.9 4 Norte -- -- 0 1015.7 -1.4 95
2019-09-24 04:00:00 19.3 3 Norte -- -- 0 1016.2 -1 94
2019-09-24 03:00:00 19.6 0 Calma 5 Noroeste 0 1016.7 -0.7 94
2019-09-24 02:00:00 19.4 2 Norte 5 Norte 0 1017.1 -0.4 94
2019-09-24 01:00:00 20 7 Noroeste 13 Noroeste 0 1017.2 -0.2 93
2019-09-24 00:00:00 20.2 6 Noroeste 13 Noroeste 0 1017.4 0.5 92
2019-09-23 23:00:00 20.8 6 Noroeste 13 Noroeste 0 1017.5 1.1 90
2019-09-23 22:00:00 21.4 8 Norte 17 Norte 0 1017.4 1.1 89
2019-09-23 21:00:00 21.9 3 Este 5 Sudeste 0 1016.9 0.5 89
2019-09-23 20:00:00 23 0 Calma 13 Este 0 1016.4 -0.1 85
2019-09-23 19:00:00 23.7 9 Este 15 Este 0 1016.3 0 83
2019-09-23 18:00:00 24.2 11 Este 18 Este 0 1016.4 0.3 81
2019-09-23 17:00:00 24.7 13 Este 21 Este 0 1016.5 0 79
2019-09-23 16:00:00 24.6 15 Este 26 Este 0 1016.3 -0.4 78
2019-09-23 15:00:00 25.3 17 Este 30 Este 0 1016.1 -0.7 76
2019-09-23 14:00:00 25.2 23 Este 33 Este 0 1016.5 -0.4 76
2019-09-23 13:00:00 25.3 21 Este 33 Este 0 1016.7 0.4 81
2019-09-23 12:00:00 25.4 20 Este 32 Este 0 1016.8 1 81
2019-09-23 11:00:00 25.7 13 Norte 28 Norte 0 1016.9 2 71
2019-09-23 10:00:00 24.5 14 Norte 26 Nordeste 0 1016.3 2.2 76
2019-09-23 09:00:00 23.8 8 Norte 17 Noroeste 0 1015.8 2.1 77
2019-09-23 08:00:00 23.3 5 Norte 18 Norte 0 1014.9 1.4 79
2019-09-23 07:00:00 23.3 8 Noroeste 22 Norte 0 1014.1 0.7 73
2019-09-23 06:00:00 23.4 12 Noroeste 26 Noroeste 0 1013.7 0.2 81
2019-09-23 05:00:00 23.6 11 Noroeste 28 Noroeste 0 1013.5 -0.1 67
2019-09-23 04:00:00 24.1 14 Noroeste 30 Oeste 0 1013.4 0 58
2019-09-23 03:00:00 24.4 12 Noroeste 22 Oeste 0 1013.5 0.1 56
2019-09-23 02:00:00 23.2 3 Sudeste 21 Sudoeste 0 1013.6 0.5 86
2019-09-23 01:00:00 23.6 15 Sudoeste 26 Sudoeste 0 1013.4 0.8 88
2019-09-23 00:00:00 23.6 17 Sudoeste 24 Oeste 0 1013.4 1.6 87
2019-09-22 23:00:00 23.7 15 Sudoeste 28 Sudoeste 0 1013.1 1.8 84
2019-09-22 22:00:00 23.7 17 Sudoeste 24 Sudoeste 0 1012.6 1.4 87
2019-09-22 21:00:00 23.6 17 Sudoeste 26 Sudoeste 0 1011.8 1 84
2019-09-22 20:00:00 23.8 14 Sudoeste 21 Sudoeste 0 1011.3 0.4 81
2019-09-22 19:00:00 24.4 15 Sudoeste 22 Sudoeste 0 1011.2 0.1 76
2019-09-22 18:00:00 25.1 16 Sudoeste 26 Sudoeste 0 1010.8 -0.3 75
2019-09-22 17:00:00 25.7 19 Sudoeste 28 Sudoeste 0 1010.9 -0.3 73
2019-09-22 16:00:00 25.6 20 Sudoeste 28 Sur 0 1011.1 -0.2 75
2019-09-22 15:00:00 26 22 Sudoeste 30 Sudoeste 0 1011.1 -0.5 72
2019-09-22 14:00:00 26 23 Sudoeste 32 Sudoeste 0 1011.2 -0.4 75
2019-09-22 13:00:00 25.8 21 Sudoeste 28 Sudoeste 0 1011.3 -0.3 78
2019-09-22 12:00:00 25.4 21 Sudoeste 28 Sudoeste 0 1011.6 0.8 80
2019-09-22 11:00:00 25.7 13 Sudoeste 24 Oeste 0 1011.6 1.1 78
2019-09-22 10:00:00 24.2 20 Sudoeste 28 Sudoeste 0 1011.6 1.7 84
2019-09-22 09:00:00 24.1 20 Sudoeste 30 Oeste 0 1010.8 0.7 87
2019-09-22 08:00:00 23.5 18 Sudoeste 30 Oeste 0 1010.5 0.3 90
2019-09-22 07:00:00 23.5 15 Sudoeste 22 Sudoeste 0 1009.9 -0.4 90
2019-09-22 06:00:00 23.7 14 Sudoeste 21 Oeste 0 1010.1 -0.6 87
2019-09-22 05:00:00 23.9 14 Sudoeste 26 Sudoeste 0 1010.2 -0.8 85
2019-09-22 04:00:00 23.8 14 Sudoeste 28 Sudoeste 0 1010.3 -0.2 86
2019-09-22 03:00:00 23.7 18 Sudoeste 26 Sudoeste 0 1010.7 0.4 87
2019-09-22 02:00:00 23.7 18 Sudoeste 26 Sudoeste 0 1011 -0.2 87
2019-09-22 01:00:00 21.9 0 Calma 15 Norte 0 1010.5 -0.4 83
2019-09-22 00:00:00 22.4 0 Calma 8 Sudoeste 0 1010.3 -0.3 85
2019-09-21 23:00:00 23 10 Sudoeste 13 Sudoeste 0 1011.2 0.9 80
2019-09-21 22:00:00 23.4 3 Oeste 13 Noroeste 0 1010.9 0.6 77
2019-09-21 21:00:00 23.7 8 Oeste 11 Noroeste 0 1010.6 1 80
2019-09-21 20:00:00 24.2 5 Oeste 15 Oeste 0 1010.3 1.1 74
2019-09-21 19:00:00 24.9 8 Noroeste 24 Noroeste 0 1010.3 1.2 72
2019-09-21 18:00:00 25.6 17 Noroeste 32 Noroeste 0 1009.6 0.4 68
2019-09-21 17:00:00 26.6 19 Noroeste 32 Norte 0 1009.2 -0.6 67
2019-09-21 16:00:00 26.3 24 Noroeste 35 Noroeste 0 1009.1 -1 72
2019-09-21 15:00:00 27.5 22 Noroeste 32 Noroeste 0 1009.2 -1 71
2019-09-21 14:00:00 26 14 Sudoeste 26 Oeste 0 1009.8 -0.6 79
2019-09-21 13:00:00 26.5 11 Este 22 Este 0 1010.1 -0.1 77
2019-09-21 12:00:00 25.6 14 Nordeste 30 Norte 0 1010.2 0.4 81
2019-09-21 11:00:00 25 12 Norte 30 Norte 0.3 1010.4 0 83
2019-09-21 10:00:00 24.4 13 Norte 33 Norte 0.2 1010.2 0.6 85
2019-09-21 09:00:00 23.9 15 Nordeste 30 Nordeste 0 1009.8 -0.6 87
2019-09-21 08:00:00 23.7 21 Nordeste 35 Este 0 1010.4 -0.4 88
2019-09-21 07:00:00 23.5 22 Nordeste 37 Nordeste 0 1009.6 -1.7 87
2019-09-21 06:00:00 23.2 19 Nordeste 30 Nordeste 0 1010.4 -0.9 86
2019-09-21 05:00:00 23.4 15 Nordeste 21 Nordeste 0 1010.8 -1.2 85
2019-09-21 04:00:00 23.2 12 Norte 32 Este 0 1011.3 -1 85
2019-09-21 03:00:00 23.6 19 Este 30 Nordeste 0 1011.3 -1.8 85
2019-09-21 02:00:00 23.9 18 Este 30 Este 0 1012 -1.4 84
2019-09-21 01:00:00 23.6 16 Este 28 Este 0 1012.3 -1.5 83
2019-09-21 00:00:00 23.5 15 Este 32 Este 0 1013.1 0 82
2019-09-20 23:00:00 23.6 17 Este 28 Este 0 1013.4 0.4 83
2019-09-20 22:00:00 23.8 15 Este 30 Este 0 1013.8 0.4 83
2019-09-20 21:00:00 23.7 21 Este 30 Este 0 1013.1 -0.6 81
2019-09-20 20:00:00 23.9 20 Este 33 Este 0 1013 -1.8 81
2019-09-20 19:00:00 24.2 20 Este 30 Este 0 1013.4 -1.3 80
2019-09-20 18:00:00 24.7 19 Este 30 Este 0 1013.7 -1 79
2019-09-20 17:00:00 24.9 18 Nordeste 26 Este 0 1014.8 -0.3 79
2019-09-20 16:00:00 25.4 20 Nordeste 32 Este 0 1014.7 -0.8 77
2019-09-20 15:00:00 25.5 22 Este 33 Este 0 1014.7 -1 77
2019-09-20 14:00:00 25.6 24 Este 37 Este 0 1015.1 -0.6 75
2019-09-20 13:00:00 25.2 22 Este 39 Este 0 1015.5 -0.5 77
2019-09-20 12:00:00 25.3 24 Este 42 Este 0 1015.7 -0.1 77
2019-09-20 11:00:00 24.5 20 Nordeste 32 Este 0 1015.7 0.1 82
2019-09-20 10:00:00 24.2 13 Nordeste 21 Este 0 1016 0.8 83
2019-09-20 09:00:00 22.5 8 Nordeste 22 Norte 0 1015.8 0.7 90
2019-09-20 08:00:00 20.8 7 Norte 9 Norte 0 1015.6 0.5 92
2019-09-20 07:00:00 20.8 5 Norte 11 Norte 0 1015.2 0 91
2019-09-20 06:00:00 20.4 4 Norte 11 Norte 0 1015.1 -0.2 90
2019-09-20 05:00:00 20.2 0 Calma 8 Norte 0 1015.1 -0.5 91
2019-09-20 04:00:00 20.3 5 Norte 13 Norte 0 1015.2 -0.7 91
2019-09-20 03:00:00 20.5 8 Norte 13 Norte 0 1015.3 -0.7 91
2019-09-20 02:00:00 21 7 Norte 15 Norte 0 1015.6 -0.2 91
2019-09-20 01:00:00 21.4 8 Norte 28 Norte 0 1015.9 0.4 90
2019-09-20 00:00:00 21.8 9 Norte 24 Norte 0 1016 1.1 89
2019-09-19 23:00:00 22.4 8 Norte 24 Norte 0 1015.8 1.6 88
2019-09-19 22:00:00 23.1 6 Este 13 Norte 0 1015.5 1.4 86
2019-09-19 21:00:00 23.4 9 Este 13 Este 0 1014.9 0.7 85
2019-09-19 20:00:00 23.7 9 Este 17 Norte 0 1014.2 0.2 84
2019-09-19 19:00:00 24.5 10 Este 18 Este 0 1014.1 -0.1 81
2019-09-19 18:00:00 24.7 10 Este 18 Sudeste 0 1014.2 -0.5 79
2019-09-19 17:00:00 25.7 13 Este 21 Este 0 1014 -0.9 77
2019-09-19 16:00:00 25.4 13 Este 21 Este 0 1014.2 -0.9 78
2019-09-19 15:00:00 25.7 14 Este 21 Este 0 1014.7 -0.6 74
2019-09-19 14:00:00 26.1 12 Este 21 Este 0 1014.9 -0.5 73
2019-09-19 13:00:00 25.8 14 Este 21 Este 0 1015.1 0.4 75
2019-09-19 12:00:00 25.7 11 Este 15 Este 0 1015.3 1.2 72
2019-09-19 11:00:00 25 8 Este 13 Sudeste 0 1015.4 1.8 75
2019-09-19 10:00:00 24.1 6 Nordeste 17 Nordeste 0 1014.7 1.1 80
2019-09-19 09:00:00 22 6 Norte 22 Noroeste 0 1014.1 0.6 90
2019-09-19 08:00:00 19.6 5 Norte 17 Norte 0 1013.6 0.1 93
2019-09-19 07:00:00 20 0 Calma 13 Norte 0 1013.6 -0.4 93
2019-09-19 06:00:00 19.8 0 Calma 8 Norte 0 1013.5 -0.8 91
2019-09-19 05:00:00 20 5 Noroeste 8 Noroeste 0 1013.5 -0.9 89
2019-09-19 04:00:00 19.9 3 Noroeste 8 Noroeste 0 1014 -0.1 87
2019-09-19 03:00:00 19.7 3 Oeste 8 Norte 0 1014.3 0.4 86
2019-09-19 02:00:00 20.2 3 Noroeste 13 Noroeste 0 1014.4 0.6 82
2019-09-19 01:00:00 20.8 0 Calma 13 Norte 0 1014.1 0.4 83
2019-09-19 00:00:00 21.5 5 Norte 13 Norte 0 1013.9 0.6 82
2019-09-18 23:00:00 21.6 7 Norte 18 Norte 0 1013.8 1 85
2019-09-18 22:00:00 22.2 7 Norte 17 Noroeste 0 1013.7 1.2 83
2019-09-18 21:00:00 23 5 Norte 11 Norte 0 1013.3 1.1 79
2019-09-18 20:00:00 23.9 3 Este 11 Este 0 1012.8 0.1 77
2019-09-18 19:00:00 25 8 Este 13 Este 0 1012.5 -0.6 73
2019-09-18 18:00:00 26.1 10 Este 17 Sur 0 1012.2 -1.1 67
2019-09-18 17:00:00 26 9 Sudoeste 18 Sudoeste 0 1012.7 -0.6 71
2019-09-18 16:00:00 26.3 13 Sudoeste 18 Sur 0 1013.1 -0.7 70
2019-09-18 15:00:00 26 15 Sudoeste 22 Sudoeste 0 1013.3 -0.9 73
2019-09-18 14:00:00 26.4 12 Sudoeste 17 Sudoeste 0 1013.3 -0.9 73
2019-09-18 13:00:00 25.9 9 Este 15 Norte 0 1013.8 0.3 71
2019-09-18 12:00:00 24.7 6 Sur 15 Sur 0 1014.2 1.5 77
2019-09-18 11:00:00 24.2 8 Sur 11 Sur 0 1014.2 2.1 82
2019-09-18 10:00:00 24.7 3 Este 11 Norte 0 1013.5 1.6 78
2019-09-18 09:00:00 21.3 3 Norte 15 Norte 0 1012.7 1.1 75
2019-09-18 08:00:00 18.9 6 Norte 17 Norte 0 1012.1 0.8 83
2019-09-18 07:00:00 17.8 2 Oeste 9 Noroeste 0 1011.9 0.4 86
2019-09-18 06:00:00 18 3 Oeste 9 Noroeste 0 1011.6 -0.6 85
2019-09-18 05:00:00 19.8 5 Norte 11 Este 0 1011.3 -1.6 88
2019-09-18 04:00:00 20 0 Calma 11 Norte 0 1011.5 -1.7 89
2019-09-18 03:00:00 20.4 4 Nordeste 8 Norte 0 1012.2 -1.9 91
2019-09-18 02:00:00 20.7 6 Norte 9 Norte 0 1012.9 -1.4 90
2019-09-18 01:00:00 21.8 5 Norte 17 Noroeste 0 1013.2 -0.6 89
2019-09-18 00:00:00 22.9 12 Noroeste 18 Noroeste 0 1014.1 1.6 88
2019-09-17 23:00:00 23.4 12 Sudoeste 21 Sur 0 1014.3 2.2 87
2019-09-17 22:00:00 22.5 6 Sudeste 11 Sudeste 0 1013.8 1.2 86
2019-09-17 21:00:00 23.2 4 Este 13 Sudeste 0 1012.5 0 84